createdAt,value
2022-08-05T00:01:36.230Z,16.18
2022-08-05T00:04:19.207Z,16.11
2022-08-05T00:06:51.540Z,16.05
2022-08-05T00:09:20.308Z,16.00
2022-08-05T00:11:55.707Z,15.97
2022-08-05T00:14:29.210Z,15.96
2022-08-05T00:17:01.878Z,15.93
2022-08-05T00:19:33.385Z,15.88
2022-08-05T00:22:11.788Z,15.82
2022-08-05T00:24:42.398Z,15.78
2022-08-05T00:27:28.542Z,15.78
2022-08-05T00:29:58.547Z,15.76
2022-08-05T00:32:28.445Z,15.76
2022-08-05T00:35:06.387Z,15.77
2022-08-05T00:37:52.886Z,15.76
2022-08-05T00:40:27.236Z,15.77
2022-08-05T00:42:59.477Z,15.74
2022-08-05T00:45:38.823Z,15.70
2022-08-05T00:48:15.611Z,15.73
2022-08-05T00:50:46.628Z,15.71
2022-08-05T00:54:00.707Z,15.69
2022-08-05T00:56:07.985Z,15.67
2022-08-05T00:58:36.949Z,15.65
2022-08-05T01:01:08.575Z,15.61
2022-08-05T01:03:39.733Z,15.59
2022-08-05T01:06:11.411Z,15.57
2022-08-05T01:08:44.279Z,15.56
2022-08-05T01:11:33.288Z,15.56
2022-08-05T01:14:28.016Z,15.54
2022-08-05T01:17:05.371Z,15.53
2022-08-05T01:20:01.789Z,15.52
2022-08-05T01:23:22.705Z,15.52
2022-08-05T01:26:18.806Z,15.49
2022-08-05T01:29:09.395Z,15.50
2022-08-05T01:31:49.393Z,15.49
2022-08-05T01:34:26.967Z,15.50
2022-08-05T01:37:24.974Z,15.51
2022-08-05T01:39:59.077Z,15.50
2022-08-05T01:42:30.074Z,15.49
2022-08-05T01:45:02.322Z,15.48
2022-08-05T01:47:39.216Z,15.49
2022-08-05T01:50:17.540Z,15.49
2022-08-05T01:52:49.739Z,15.46
2022-08-05T01:55:22.607Z,15.44
2022-08-05T01:58:11.162Z,15.40
2022-08-05T02:00:50.318Z,15.37
2022-08-05T02:03:39.852Z,15.35
2022-08-05T02:06:37.066Z,15.33
2022-08-05T02:08:58.957Z,15.30
2022-08-05T02:11:42.269Z,15.27
2022-08-05T02:14:26.614Z,15.26
2022-08-05T02:16:59.113Z,15.27
2022-08-05T02:19:47.319Z,15.25
2022-08-05T02:22:46.686Z,15.23
2022-08-05T02:25:22.341Z,15.22
2022-08-05T02:27:58.964Z,15.22
2022-08-05T02:30:51.685Z,15.20
2022-08-05T02:33:35.916Z,15.20
2022-08-05T02:36:13.620Z,15.19
2022-08-05T02:38:53.491Z,15.18
2022-08-05T02:41:28.946Z,15.15
2022-08-05T02:44:12.386Z,15.16
2022-08-05T02:46:58.892Z,15.19
2022-08-05T02:49:37.933Z,15.16
2022-08-05T02:52:29.475Z,15.15
2022-08-05T02:55:01.934Z,15.14
2022-08-05T02:58:10.788Z,15.13
2022-08-05T03:00:25.364Z,15.10
2022-08-05T03:02:58.470Z,15.06
2022-08-05T03:06:53.704Z,15.03
2022-08-05T03:08:16.542Z,15.00
2022-08-05T03:11:53.349Z,14.99
2022-08-05T03:13:52.252Z,14.95
2022-08-05T03:16:22.055Z,14.92
2022-08-05T03:18:51.130Z,14.92
2022-08-05T03:21:19.978Z,14.90
2022-08-05T03:23:50.719Z,14.87
2022-08-05T03:26:31.883Z,14.83
2022-08-05T03:29:01.026Z,14.83
2022-08-05T03:31:54.219Z,14.83
2022-08-05T03:34:19.090Z,14.79
2022-08-05T03:36:46.859Z,14.81
2022-08-05T03:39:20.075Z,14.82
2022-08-05T03:41:56.784Z,14.81
2022-08-05T03:44:25.524Z,14.79
2022-08-05T03:46:56.993Z,14.77
2022-08-05T03:49:31.205Z,14.76
2022-08-05T03:52:48.889Z,14.75
2022-08-05T03:56:04.331Z,14.73
2022-08-05T03:58:12.237Z,14.71
2022-08-05T04:00:44.268Z,14.74
2022-08-05T04:03:28.572Z,14.73
2022-08-05T04:05:59.192Z,14.72
2022-08-05T04:08:36.506Z,14.72
2022-08-05T04:11:08.658Z,14.68
2022-08-05T04:13:51.211Z,14.67
2022-08-05T04:16:25.461Z,14.69
2022-08-05T04:19:00.342Z,14.67
2022-08-05T04:22:05.147Z,14.69
2022-08-05T04:24:19.284Z,14.69
2022-08-05T04:26:50.879Z,14.66
2022-08-05T04:29:18.877Z,14.67
2022-08-05T04:31:48.544Z,14.66
2022-08-05T04:34:32.802Z,14.65
2022-08-05T04:37:03.636Z,14.61
2022-08-05T04:39:33.477Z,14.56
2022-08-05T04:42:03.876Z,14.52
2022-08-05T04:44:31.764Z,14.46
2022-08-05T04:46:59.991Z,14.40
2022-08-05T04:50:02.635Z,14.35
2022-08-05T04:52:28.267Z,14.28
2022-08-05T04:54:57.021Z,14.20
2022-08-05T04:57:28.937Z,14.15
2022-08-05T04:59:58.630Z,14.12
2022-08-05T05:02:36.818Z,14.13
2022-08-05T05:05:16.538Z,14.10
2022-08-05T05:08:01.657Z,14.03
2022-08-05T05:10:42.203Z,14.00
2022-08-05T05:13:24.202Z,13.94
2022-08-05T05:15:59.475Z,13.90
2022-08-05T05:18:34.307Z,13.90
2022-08-05T05:21:03.917Z,13.87
2022-08-05T05:23:39.068Z,13.87
2022-08-05T05:26:28.768Z,13.85
2022-08-05T05:29:00.894Z,13.80
2022-08-05T05:31:35.755Z,13.80
2022-08-05T05:34:01.974Z,13.75
2022-08-05T05:36:31.998Z,13.72
2022-08-05T05:39:00.122Z,13.73
2022-08-05T05:41:40.468Z,13.73
2022-08-05T05:44:35.485Z,13.73
2022-08-05T05:46:58.442Z,13.75
2022-08-05T05:49:33.183Z,13.77
2022-08-05T05:52:01.447Z,13.79
2022-08-05T05:54:35.488Z,13.83
2022-08-05T05:57:19.160Z,13.79
2022-08-05T05:59:48.924Z,13.79
2022-08-05T06:02:17.169Z,13.81
2022-08-05T06:05:01.219Z,13.87
2022-08-05T06:07:42.032Z,13.88
2022-08-05T06:10:11.179Z,13.89
2022-08-05T06:12:42.240Z,13.91
2022-08-05T06:15:16.490Z,13.90
2022-08-05T06:17:54.244Z,13.96
2022-08-05T06:20:23.028Z,14.02
2022-08-05T06:22:50.750Z,14.04
2022-08-05T06:25:59.251Z,14.07
2022-08-05T06:28:10.685Z,14.17
2022-08-05T06:30:48.409Z,14.24
2022-08-05T06:33:19.339Z,14.30
2022-08-05T06:36:03.407Z,14.35
2022-08-05T06:38:37.049Z,14.40
2022-08-05T06:41:08.423Z,14.45
2022-08-05T06:43:59.441Z,14.50
2022-08-05T06:46:29.800Z,14.55
2022-08-05T06:49:01.380Z,14.58
2022-08-05T06:51:31.327Z,14.63
2022-08-05T06:54:02.522Z,14.69
2022-08-05T06:56:34.104Z,14.77
2022-08-05T06:59:08.336Z,14.85
2022-08-05T07:01:40.711Z,14.90
2022-08-05T07:04:10.822Z,14.94
2022-08-05T07:06:42.632Z,14.96
2022-08-05T07:09:10.390Z,15.01
2022-08-05T07:11:39.818Z,15.06
2022-08-05T07:14:29.565Z,15.14
2022-08-05T07:17:58.469Z,15.23
2022-08-05T07:20:32.311Z,15.27
2022-08-05T07:22:39.348Z,15.38
2022-08-05T07:25:54.085Z,15.46
2022-08-05T07:28:03.818Z,15.49
2022-08-05T07:30:38.461Z,15.54
2022-08-05T07:33:17.081Z,15.51
2022-08-05T07:36:04.061Z,15.48
2022-08-05T07:38:43.150Z,15.51
2022-08-05T07:42:12.961Z,15.59
2022-08-05T07:44:18.775Z,15.69
2022-08-05T07:46:49.539Z,15.79
2022-08-05T07:49:19.774Z,15.89
2022-08-05T07:51:53.306Z,15.93
2022-08-05T07:54:30.748Z,15.93
2022-08-05T07:57:22.667Z,15.94
2022-08-05T07:59:48.967Z,15.94
2022-08-05T08:02:17.894Z,15.98
2022-08-05T08:04:47.537Z,16.05
2022-08-05T08:07:22.162Z,16.17
2022-08-05T08:09:54.997Z,16.25
2022-08-05T08:12:37.491Z,16.33
2022-08-05T08:15:15.038Z,16.39
2022-08-05T08:17:49.672Z,16.41
2022-08-05T08:21:00.235Z,16.49
2022-08-05T08:23:11.825Z,16.56
2022-08-05T08:26:04.694Z,16.70
2022-08-05T08:28:36.586Z,16.84
2022-08-05T08:31:09.198Z,16.91
2022-08-05T08:33:37.825Z,17.03
2022-08-05T08:38:57.679Z,17.17
2022-08-05T08:41:52.086Z,17.36
2022-08-05T08:45:23.263Z,17.63
2022-08-05T08:47:21.757Z,17.89
2022-08-05T08:50:22.760Z,17.95
2022-08-05T08:53:00.606Z,17.86
2022-08-05T08:56:02.051Z,17.87
2022-08-05T08:58:17.403Z,18.02
2022-08-05T09:00:46.516Z,18.13
2022-08-05T09:03:16.155Z,18.30
2022-08-05T09:06:08.826Z,18.33
2022-08-05T09:08:37.280Z,18.16
2022-08-05T09:11:13.748Z,18.10
2022-08-05T09:14:09.166Z,18.10
2022-08-05T09:16:31.531Z,18.17
2022-08-05T09:18:59.643Z,18.26
2022-08-05T09:22:22.289Z,18.28
2022-08-05T09:24:16.883Z,18.22
2022-08-05T09:26:52.609Z,18.24
2022-08-05T09:29:20.429Z,18.33
2022-08-05T09:32:41.143Z,18.50
2022-08-05T09:34:58.478Z,18.55
2022-08-05T09:38:16.366Z,18.76
2022-08-05T09:40:34.206Z,18.94
2022-08-05T09:43:08.443Z,18.97
2022-08-05T09:46:06.756Z,18.90
2022-08-05T09:48:35.741Z,18.70
2022-08-05T09:51:14.781Z,18.52
2022-08-05T09:53:54.431Z,18.51
2022-08-05T09:56:34.247Z,18.59
2022-08-05T09:59:16.886Z,18.70
2022-08-05T10:01:47.096Z,18.78
2022-08-05T10:04:16.117Z,18.77
2022-08-05T10:06:59.252Z,18.83
2022-08-05T10:09:29.523Z,18.85
2022-08-05T10:12:31.359Z,18.86
2022-08-05T10:15:23.769Z,18.87
2022-08-05T10:18:08.726Z,18.91
2022-08-05T10:20:59.789Z,18.97
2022-08-05T10:23:59.235Z,19.03
2022-08-05T10:26:32.590Z,19.00
2022-08-05T10:29:02.543Z,19.07
2022-08-05T10:32:53.607Z,19.10
2022-08-05T10:34:25.900Z,19.14
2022-08-05T10:36:59.824Z,19.19
2022-08-05T10:40:04.119Z,19.29
2022-08-05T10:42:33.873Z,19.41
2022-08-05T10:45:21.611Z,19.45
2022-08-05T10:48:30.021Z,19.41
2022-08-05T10:51:00.514Z,19.42
2022-08-05T10:53:51.169Z,19.48
2022-08-05T10:56:26.215Z,19.41
2022-08-05T10:58:54.507Z,19.47
2022-08-05T11:01:55.128Z,19.67
2022-08-05T11:04:44.515Z,19.84
2022-08-05T11:07:16.532Z,19.94
2022-08-05T11:10:03.761Z,20.01
2022-08-05T11:12:41.278Z,20.07
2022-08-05T11:15:20.240Z,20.10
2022-08-05T11:17:59.587Z,20.17
2022-08-05T11:20:47.505Z,20.35
2022-08-05T11:24:04.963Z,20.47
2022-08-05T11:26:43.379Z,20.67
2022-08-05T11:29:40.961Z,20.87
2022-08-05T11:32:29.936Z,21.11
2022-08-05T11:34:58.020Z,21.17
2022-08-05T11:38:28.420Z,21.07
2022-08-05T11:41:56.287Z,20.91
2022-08-05T11:44:40.494Z,21.06
2022-08-05T11:47:14.086Z,20.88
2022-08-05T11:49:49.831Z,20.60
2022-08-05T11:52:29.501Z,20.43
2022-08-05T11:55:07.291Z,20.61
2022-08-05T11:58:08.423Z,20.94
2022-08-05T12:00:29.128Z,21.31
2022-08-05T12:02:58.272Z,21.57
2022-08-05T12:05:36.460Z,21.55
2022-08-05T12:08:11.495Z,21.25
2022-08-05T12:10:44.958Z,20.91
2022-08-05T12:13:28.009Z,21.14
2022-08-05T12:16:14.786Z,21.48
2022-08-05T12:18:52.356Z,21.61
2022-08-05T12:21:33.866Z,21.37
2022-08-05T12:24:17.577Z,20.97
2022-08-05T12:26:52.687Z,20.66
2022-08-05T12:29:24.206Z,20.53
2022-08-05T12:31:55.248Z,20.86
2022-08-05T12:34:29.982Z,21.28
2022-08-05T12:37:17.385Z,21.42
2022-08-05T12:39:53.910Z,21.35
2022-08-05T12:42:25.304Z,21.41
2022-08-05T12:45:03.441Z,21.52
2022-08-05T12:47:38.386Z,21.78
2022-08-05T12:50:17.633Z,22.14
2022-08-05T12:52:59.670Z,22.41
2022-08-05T12:55:32.925Z,22.68
2022-08-05T12:58:52.492Z,22.45
2022-08-05T13:01:59.947Z,22.22
2022-08-05T13:03:41.959Z,22.40
2022-08-05T13:06:17.479Z,22.61
2022-08-05T13:08:52.041Z,22.81
2022-08-05T13:12:02.191Z,23.09
2022-08-05T13:14:24.931Z,22.98
2022-08-05T13:17:09.870Z,22.47
2022-08-05T13:19:51.734Z,22.14
2022-08-05T13:22:29.554Z,22.09
2022-08-05T13:25:05.815Z,22.48
2022-08-05T13:27:39.783Z,23.07
2022-08-05T13:30:34.220Z,23.41
2022-08-05T13:33:01.132Z,23.18
2022-08-05T13:35:31.259Z,22.74
2022-08-05T13:38:20.006Z,22.30
2022-08-05T13:40:56.347Z,22.19
2022-08-05T13:43:24.092Z,22.41
2022-08-05T13:46:12.119Z,22.51
2022-08-05T13:48:57.268Z,22.31
2022-08-05T13:51:40.314Z,22.20
2022-08-05T13:54:12.058Z,22.24
2022-08-05T13:56:50.580Z,22.32
2022-08-05T13:59:24.116Z,22.65
2022-08-05T14:01:58.952Z,22.89
2022-08-05T14:04:52.415Z,22.92
2022-08-05T14:07:56.380Z,23.09
2022-08-05T14:10:19.116Z,23.25
2022-08-05T14:12:57.092Z,23.42
2022-08-05T14:16:06.927Z,23.19
2022-08-05T14:18:17.875Z,23.08
2022-08-05T14:20:48.506Z,22.87
2022-08-05T14:23:23.894Z,22.58
2022-08-05T14:25:58.785Z,22.38
2022-08-05T14:28:29.621Z,22.23
2022-08-05T14:31:01.511Z,22.20
2022-08-05T14:33:56.281Z,22.36
2022-08-05T14:36:20.658Z,22.52
2022-08-05T14:38:51.428Z,22.53
2022-08-05T14:41:19.591Z,22.57
2022-08-05T14:44:00.073Z,22.72
2022-08-05T14:46:35.039Z,22.92
2022-08-05T14:49:07.393Z,23.06
2022-08-05T14:51:38.968Z,23.09
2022-08-05T14:54:28.440Z,23.24
2022-08-05T14:56:59.551Z,23.37
2022-08-05T14:59:29.641Z,23.41
2022-08-05T15:02:16.135Z,23.52
2022-08-05T15:04:44.985Z,23.68
2022-08-05T15:08:08.560Z,23.72
2022-08-05T15:10:09.892Z,23.87
2022-08-05T15:12:57.993Z,23.97
2022-08-05T15:15:55.354Z,23.96
2022-08-05T15:18:15.723Z,23.93
2022-08-05T15:20:45.925Z,23.97
2022-08-05T15:23:14.403Z,23.90
2022-08-05T15:25:52.812Z,23.84
2022-08-05T15:28:27.199Z,23.82
2022-08-05T15:30:57.153Z,23.72
2022-08-05T15:34:05.063Z,23.40
2022-08-05T15:36:17.548Z,23.41
2022-08-05T15:40:41.230Z,23.51
2022-08-05T15:41:57.570Z,23.47
2022-08-05T15:44:28.251Z,23.36
2022-08-05T15:47:01.518Z,23.28
2022-08-05T15:49:53.411Z,23.20
2022-08-05T15:52:51.751Z,23.15
2022-08-05T15:55:15.541Z,23.01
2022-08-05T15:57:44.930Z,22.84
2022-08-05T16:00:16.671Z,22.68
2022-08-05T16:02:44.846Z,22.57
2022-08-05T16:05:12.579Z,22.50
2022-08-05T16:07:46.584Z,22.47
2022-08-05T16:10:19.154Z,22.61
2022-08-05T16:12:53.252Z,22.82
2022-08-05T16:15:24.215Z,22.92
2022-08-05T16:18:00.266Z,23.05
2022-08-05T16:20:28.169Z,23.17
2022-08-05T16:22:56.089Z,23.00
2022-08-05T16:25:34.108Z,22.93
2022-08-05T16:28:06.503Z,22.85
2022-08-05T16:30:38.192Z,22.77
2022-08-05T16:33:06.561Z,22.93
2022-08-05T16:35:41.841Z,23.09
2022-08-05T16:38:24.556Z,23.19
2022-08-05T16:41:00.494Z,23.10
2022-08-05T16:43:35.129Z,23.04
2022-08-05T16:46:23.497Z,23.20
2022-08-05T16:48:52.575Z,23.45
2022-08-05T16:51:20.747Z,23.62
2022-08-05T16:54:05.025Z,23.58
2022-08-05T16:56:41.636Z,23.27
2022-08-05T16:59:10.252Z,23.02
2022-08-05T17:01:54.695Z,23.01
2022-08-05T17:04:27.634Z,22.96
2022-08-05T17:07:03.591Z,22.71
2022-08-05T17:09:58.210Z,22.65
2022-08-05T17:12:50.327Z,22.78
2022-08-05T17:15:19.284Z,22.97
2022-08-05T17:17:54.424Z,23.01
2022-08-05T17:20:23.386Z,22.92
2022-08-05T17:22:55.426Z,22.78
2022-08-05T17:25:39.209Z,22.64
2022-08-05T17:28:09.824Z,22.56
2022-08-05T17:30:42.496Z,22.61
2022-08-05T17:33:18.756Z,22.66
2022-08-05T17:36:07.855Z,22.63
2022-08-05T17:38:35.552Z,22.54
2022-08-05T17:41:03.635Z,22.49
2022-08-05T17:43:46.783Z,22.49
2022-08-05T17:46:15.286Z,22.51
2022-08-05T17:48:47.929Z,22.47
2022-08-05T17:51:21.940Z,22.54
2022-08-05T17:53:54.449Z,22.65
2022-08-05T17:56:22.943Z,22.58
2022-08-05T17:58:56.232Z,22.33
2022-08-05T18:01:23.926Z,22.14
2022-08-05T18:04:04.733Z,22.10
2022-08-05T18:06:33.632Z,21.94
2022-08-05T18:09:03.639Z,21.76
2022-08-05T18:11:33.453Z,21.67
2022-08-05T18:14:04.212Z,21.60
2022-08-05T18:16:34.583Z,21.53
2022-08-05T18:19:05.093Z,21.64
2022-08-05T18:22:09.195Z,21.76
2022-08-05T18:24:22.788Z,21.83
2022-08-05T18:26:50.534Z,21.85
2022-08-05T18:29:40.881Z,21.85
2022-08-05T18:32:06.589Z,21.86
2022-08-05T18:34:42.975Z,21.88
2022-08-05T18:37:12.110Z,21.82
2022-08-05T18:40:31.085Z,21.78
2022-08-05T18:42:28.741Z,21.63
2022-08-05T18:44:56.695Z,21.47
2022-08-05T18:47:26.413Z,21.28
2022-08-05T18:50:15.558Z,21.08
2022-08-05T18:52:51.237Z,20.92
2022-08-05T18:55:21.658Z,20.78
2022-08-05T18:57:53.448Z,20.59
2022-08-05T19:00:27.283Z,20.43
2022-08-05T19:03:04.142Z,20.33
2022-08-05T19:06:13.288Z,20.19
2022-08-05T19:08:30.826Z,20.03
2022-08-05T19:11:02.690Z,19.92
2022-08-05T19:13:35.581Z,19.83
2022-08-05T19:16:24.477Z,19.75
2022-08-05T19:18:56.634Z,19.63
2022-08-05T19:21:27.644Z,19.54
2022-08-05T19:24:06.151Z,19.44
2022-08-05T19:26:45.480Z,19.33
2022-08-05T19:29:35.844Z,19.25
2022-08-05T19:32:11.151Z,19.19
2022-08-05T19:34:39.712Z,19.09
2022-08-05T19:37:10.000Z,19.01
2022-08-05T19:39:45.812Z,18.99
2022-08-05T19:42:35.308Z,18.91
2022-08-05T19:45:06.097Z,18.78
2022-08-05T19:47:37.555Z,18.70
2022-08-05T19:50:07.882Z,18.60
2022-08-05T19:52:38.524Z,18.49
2022-08-05T19:56:11.805Z,18.41
2022-08-05T19:58:14.476Z,18.35
2022-08-05T20:00:42.695Z,18.31
2022-08-05T20:03:11.056Z,18.25
2022-08-05T20:05:43.042Z,18.19
2022-08-05T20:08:18.483Z,18.13
2022-08-05T20:10:49.556Z,18.07
2022-08-05T20:13:25.829Z,17.98
2022-08-05T20:16:07.339Z,17.93
2022-08-05T20:18:36.139Z,17.86
2022-08-05T20:21:06.957Z,17.79
2022-08-05T20:23:39.873Z,17.73
2022-08-05T20:26:21.671Z,17.67
2022-08-05T20:28:56.362Z,17.64
2022-08-05T20:31:37.252Z,17.59
2022-08-05T20:34:11.747Z,17.51
2022-08-05T20:36:43.188Z,17.47
2022-08-05T20:39:16.376Z,17.39
2022-08-05T20:41:47.882Z,17.33
2022-08-05T20:44:29.418Z,17.28
2022-08-05T20:47:01.909Z,17.21
2022-08-05T20:49:37.789Z,17.15
2022-08-05T20:52:08.740Z,17.10
2022-08-05T20:54:59.028Z,17.07
2022-08-05T20:57:43.430Z,16.99
2022-08-05T21:00:40.483Z,16.92
2022-08-05T21:03:07.182Z,16.88
2022-08-05T21:05:54.108Z,16.82
2022-08-05T21:08:41.845Z,16.78
2022-08-05T21:11:15.128Z,16.70
2022-08-05T21:14:00.830Z,16.66
2022-08-05T21:16:30.784Z,16.63
2022-08-05T21:19:01.052Z,16.57
2022-08-05T21:21:39.414Z,16.51
2022-08-05T21:24:15.647Z,16.47
2022-08-05T21:26:47.361Z,16.43
2022-08-05T21:29:24.808Z,16.41
2022-08-05T21:31:55.787Z,16.37
2022-08-05T21:34:23.580Z,16.33
2022-08-05T21:36:52.297Z,16.28
2022-08-05T21:39:26.590Z,16.24
2022-08-05T21:42:01.994Z,16.18
2022-08-05T21:44:31.839Z,16.12
2022-08-05T21:47:00.426Z,16.07
2022-08-05T21:49:48.544Z,16.02
2022-08-05T21:52:27.865Z,15.98
2022-08-05T21:55:06.201Z,15.95
2022-08-05T21:57:37.382Z,15.91
2022-08-05T22:00:12.826Z,15.88
2022-08-05T22:02:42.531Z,15.86
2022-08-05T22:05:13.829Z,15.84
2022-08-05T22:07:58.939Z,15.82
2022-08-05T22:10:28.279Z,15.77
2022-08-05T22:14:06.260Z,15.74
2022-08-05T22:16:02.602Z,15.70
2022-08-05T22:18:39.170Z,15.65
2022-08-05T22:21:18.757Z,15.61
2022-08-05T22:24:09.069Z,15.57
2022-08-05T22:27:00.021Z,15.52
2022-08-05T22:29:32.819Z,15.49
2022-08-05T22:32:03.266Z,15.46
2022-08-05T22:34:33.310Z,15.43
2022-08-05T22:37:03.725Z,15.41
2022-08-05T22:39:33.939Z,15.39
2022-08-05T22:42:10.152Z,15.38
2022-08-05T22:44:53.443Z,15.36
2022-08-05T22:47:29.725Z,15.31
2022-08-05T22:50:18.262Z,15.27
2022-08-05T22:52:51.411Z,15.26
2022-08-05T22:55:22.950Z,15.23
2022-08-05T22:57:53.220Z,15.18
2022-08-05T23:00:23.601Z,15.16
2022-08-05T23:02:53.381Z,15.12
2022-08-05T23:05:22.645Z,15.07
2022-08-05T23:07:52.069Z,15.04
2022-08-05T23:10:23.999Z,14.99
2022-08-05T23:12:55.364Z,14.95
2022-08-05T23:15:29.977Z,14.90
2022-08-05T23:18:05.859Z,14.86
2022-08-05T23:20:39.579Z,14.84
2022-08-05T23:23:08.412Z,14.80
2022-08-05T23:25:53.156Z,14.77
2022-08-05T23:28:28.626Z,14.76
2022-08-05T23:31:02.375Z,14.73
2022-08-05T23:34:04.952Z,14.67
2022-08-05T23:36:40.017Z,14.62
2022-08-05T23:39:32.310Z,14.57
2022-08-05T23:42:05.393Z,14.52
2022-08-05T23:44:36.398Z,14.48
2022-08-05T23:47:15.598Z,14.44
2022-08-05T23:49:46.189Z,14.38
2022-08-05T23:52:35.772Z,14.35
2022-08-05T23:55:09.070Z,14.33
2022-08-05T23:57:37.188Z,14.30
